Accueil
METAR-TAF:

METAR-TAF

Aéroports :

Mönchengladbach, Allemagne

latitude: 51-13-49N, longitude: 006-30-16E, altitude: 38 m

Observation

Le bulletin a été fait il y a 23 minutes, à 03:50 UTC
Vent 5 kt de ouest, variant entre sud/sud-ouest et nord-ouest
Température 5°C
Humidité 87%
Pression 1011 hPa
Visibilité 10 km ou plus

METAR: EDLN 240350Z AUTO 26005KT 210V310 9999 // OVC069/// 05/03 Q1011

Heure: 06:13 (04:13 UTC)

Prévision

Le bulletin a été fait il y a 11 heures et 13 minutes, à 17:00 UTC
Prévision valable du 23 à 18 UTC au 24 à 03 UTC
Vent 6 kt de ouest
Visibilité 10 km ou plus
pas de nuages en-dessous de 1500 mètres et pas de cumulonimbus.
Probabilité 30% :
Temporairement
du 23 à 22 UTC au 24 à 01 UTC
Nuages fragmentés à une hauteur de 1400 ft
pluie,

TAF: EDLN 231700Z 2318/2403 28006KT CAVOK PROB30 TEMPO 2322/2401 RA BKN014

Observations et prévisions météorologiques de plus de 4000 aéroports (messages METAR et TAF).

Les stations disponibles sont représentées par des disques jaunes et rouges sur la carte.

Passer la souris dessus pour voir le nom de la station.

Cliquer dessus pour voir les observations et prévisions météorologiques.

Pour changer de carte: cliquez sur les boutons verts avec une croix noire pour zoomer, sur le bouton vert avec un tiret pour effectuer un zoom arrière, ou sur les flèches vertes pour les cartes adjacentes.


METAR-TAF: